Weather at Pension Wisteria Helipad

Public forecast

Using degrees Celsius for public forecast. Weather courtesy of forecast.io.

Closest aviation weather report (METAR) to Pension Wisteria Helipad

Closest report is Anapa Vityazevo Airport, 140.4 nm (260.0 km) ENE.

2023/03/20 21:30 (retrieved 18 minutes ago)

URKA 202130Z 16003MPS 9000 BKN024CB 06/05 Q1016 R04/190065 TEMPO 2000 -SHRA BR BKN004 BKN016CB RMK QFE758/1011

Closest aviation forecast (TAF) to Pension Wisteria Helipad

Closest forecast is Anapa Vityazevo Airport, 140.4 nm (260.0 km) ENE.

2023/03/20 21:21 (retrieved 27 minutes ago)

TAF TAF URKA 201958Z 2021/2121 14003MPS 9999 BKN016CB TEMPO 2021/2109 6000 -SHRA BKN007 BKN016CB